Flight Track Log - Related Links

Times and Time Zones

All times are in EST time to prevent confusion due to time zone crossing. See the XOJ552 flight status page for this flight to view local times or setup timezone preferences in your user account.

Time Position Orientation Groundspeed Altitude Reporting Facility
EST Latitude Longitude Course Direction KTS MPH feet Rate Location/Type
Sun 01:06:35 PM 41.3892 -81.8722 166° South 175 201 2,100  Level Cleveland Center
Sun 01:06:59 PM 41.3750 -81.8708 176° South 172 198 3,100 3,405 Climbing Cleveland Center
Sun 01:07:12 PM 41.3558 -81.8694 177° South 198 228 4,200 3,290 Climbing Cleveland Center
Sun 01:08:01 PM 41.3147 -81.8561 166° South 222 255 6,500 3,459 Climbing Cleveland Center
Sun 01:09:03 PM 41.2661 -81.7464 120° Southeast 307 353 10,600 3,805 Climbing Cleveland Center
Sun 01:10:04 PM 41.2300 -81.6233 111° Southeast 358 412 14,300 3,220 Climbing Cleveland Center
Sun 01:11:06 PM 41.1781 -81.4947 118° Southeast 405 466 17,200 3,122 Climbing Cleveland Center
Sun 01:12:00 PM 40.9769 -81.1478 166° South  Level FlightAware Approximate
Sun 01:12:07 PM 41.0839 -81.4364 155° Southeast 384 442 20,700  Level Cleveland Center
Sun 01:13:09 PM 40.9789 -81.3781 157° South 400 460 23,100 2,129 Climbing Cleveland Center
Sun 01:14:11 PM 40.8681 -81.3161 157° South 425 489 25,100 2,195 Climbing Cleveland Center
Sun 01:15:12 PM 40.7519 -81.2525 157° South 444 511 27,600 2,098 Climbing Cleveland Center
Sun 01:16:14 PM 40.6381 -81.1886 157° South 443 510 29,400 1,935 Climbing Cleveland Center
Sun 01:17:16 PM 40.5028 -81.1156 158° South 452 520 31,600 1,951 Climbing Cleveland Center
Sun 01:18:17 PM 40.3856 -81.0533 158° South 455 524 33,400 1,756 Climbing Cleveland Center
Sun 01:19:19 PM 40.2692 -80.9911 158° South 455 524 35,200 1,548 Climbing Cleveland Center
Sun 01:20:21 PM 40.1550 -80.9306 158° South 450 518 36,600 1,286 Climbing Cleveland Center
Sun 01:20:57 PM 40.0647 -80.8842 159° South 451 519 37,300 1,073 Climbing Indianapolis Center
Sun 01:22:24 PM 39.8981 -80.7939 157° South 457 526 38,800 1,016 Climbing Cleveland Center
Sun 01:23:01 PM 39.8272 -80.7575 158° South 457 526 39,400 857 Climbing Indianapolis Center
Sun 01:24:02 PM 39.7117 -80.6828 154° Southeast 462 532 40,200 503 Climbing Indianapolis Center
Sun 01:26:12 PM 39.4658 -80.5006 150° Southeast 480 552 41,000 253 Climbing Washington Center
Sun 01:27:12 PM 39.3483 -80.4147 151° Southeast 480 552 41,000  Level Washington Center
Sun 01:28:12 PM 39.2308 -80.3292 151° Southeast 485 558 41,000  Level Washington Center
Sun 01:29:13 PM 39.1133 -80.2386 149° Southeast 485 558 41,000  Level Washington Center
Sun 01:30:11 PM 38.9892 -80.1639 155° Southeast 490 564 41,000  Level Washington Center
Sun 01:31:12 PM 38.8756 -80.1356 169° South 485 558 41,000  Level Washington Center
Sun 01:32:12 PM 38.7536 -80.1039 169° South 466 536 41,000  Level Washington Center
Sun 01:33:13 PM 38.6286 -80.0458 160° South 471 542 41,000  Level Washington Center
Sun 01:34:11 PM 38.5058 -79.9828 158° South 476 548 41,000  Level Washington Center
Sun 01:35:12 PM 38.3850 -79.9253 160° South 481 554 41,000  Level Washington Center
Sun 01:36:13 PM 38.2539 -79.8594 158° South 471 542 41,000  Level Washington Center
Sun 01:37:11 PM 38.1347 -79.8025 159° South 464 534 41,000  Level Washington Center
Sun 01:38:12 PM 38.0181 -79.7458 159° South 459 528 41,000  Level Washington Center
Sun 01:39:13 PM 37.8989 -79.6892 159° South 459 528 41,000  Level Washington Center
Sun 01:40:13 PM 37.7922 -79.6361 159° South 459 528 41,000  Level Washington Center
Sun 01:41:11 PM 37.6589 -79.5686 158° South 467 537 41,000  Level Washington Center
Sun 01:42:12 PM 37.5417 -79.5156 160° South 462 532 41,000  Level Washington Center
Sun 01:43:13 PM 37.4347 -79.4681 161° South 457 526 41,000  Level Washington Center
Sun 01:44:11 PM 37.3033 -79.4039 159° South 462 532 41,000  Level Washington Center
Sun 01:45:11 PM 37.1925 -79.3514 159° South 462 532 41,000  Level Washington Center
Sun 01:46:12 PM 37.0753 -79.2936 159° South 462 532 41,000  Level Washington Center
Sun 01:47:12 PM 36.9558 -79.2386 160° South 462 532 41,000  Level Washington Center
Sun 01:48:13 PM 36.8367 -79.1836 160° South 462 532 41,000  Level Washington Center
Sun 01:49:13 PM 36.7111 -79.1258 160° South 457 526 41,000  Level Washington Center
Sun 01:50:11 PM 36.5978 -79.0769 161° South 449 517 41,000  Level Washington Center
Sun 01:51:13 PM 36.4825 -79.0225 159° South 443 510 41,000  Level Washington Center
Sun 01:52:13 PM 36.3672 -78.9711 160° South 443 510 41,000  Level Washington Center
Sun 01:53:11 PM 36.2478 -78.9144 159° South 448 516 41,000  Level Washington Center
Sun 01:54:12 PM 36.1303 -78.8631 161° South 448 516 41,000  Level Washington Center
Sun 01:55:13 PM 36.0128 -78.8094 160° South 448 516 41,000  Level Washington Center
Sun 01:56:11 PM 35.8953 -78.7561 160° South 448 516 41,000  Level Washington Center
Sun 01:57:11 PM 35.7756 -78.7000 159° South 453 521 41,000  Level Washington Center
Sun 01:58:12 PM 35.6600 -78.6494 160° South 453 521 41,000  Level Washington Center
Sun 01:59:12 PM 35.5508 -78.5994 160° South 461 531 41,000  Level Washington Center
Sun 02:00:13 PM 35.4228 -78.5411 160° South 461 531 41,000  Level Washington Center
Sun 02:01:13 PM 35.3133 -78.4939 161° South 456 525 41,000  Level Washington Center
Sun 02:02:11 PM 35.2019 -78.4439 160° South 450 518 41,000  Level Washington Center
Sun 02:03:14 PM 35.0864 -78.3917 160° South 445 512 41,000  Level Washington Center
Sun 02:04:12 PM 34.9728 -78.3397 159° South 445 512 41,000  Level Washington Center
Sun 02:05:12 PM 34.8592 -78.2903 160° South 445 512 41,000  Level Washington Center
Sun 02:06:13 PM 34.7372 -78.2406 161° South 438 504 41,000  Level Washington Center
Sun 02:07:13 PM 34.6214 -78.1889 160° South 438 504 41,000  Level Washington Center
Sun 02:08:11 PM 34.5081 -78.1225 154° Southeast 446 513 41,000  Level Washington Center
Sun 02:09:12 PM 34.4167 -78.0039 133° Southeast 462 532 41,000 347 Level Washington Center
Sun 02:10:12 PM 34.3119 -77.9203 147° Southeast 462 532 41,700 545 Climbing Washington Center
Sun 02:11:13 PM 34.2039 -77.8997 171° South 444 511 42,100 364 Climbing Washington Center
Sun 02:13:30 PM 33.9375 -77.8889 178° South 419 482 42,900 274 Climbing Jacksonville Center
Sun 02:14:30 PM 33.8225 -77.8831 178° South 419 482 43,000 50 Climbing Jacksonville Center
Sun 02:15:30 PM 33.7014 -77.8800 179° South 429 494 43,000  Level Jacksonville Center
Sun 02:16:30 PM 33.5739 -77.8747 178° South 429 494 43,000  Level Jacksonville Center
Sun 02:17:30 PM 33.4547 -77.8717 179° South 429 494 43,000  Level Jacksonville Center
Sun 02:18:30 PM 33.3356 -77.8658 178° South 429 494 43,000  Level Jacksonville Center
Sun 02:19:30 PM 33.2164 -77.8603 178° South 429 494 43,000  Level Jacksonville Center
Sun 02:20:30 PM 33.0975 -77.8569 179° South 429 494 43,000  Level Jacksonville Center
Sun 02:21:30 PM 32.9783 -77.8514 178° South 423 487 43,000  Level Jacksonville Center
Sun 02:22:30 PM 32.8592 -77.8481 179° South 423 487 43,000  Level Jacksonville Center
Sun 02:23:30 PM 32.7400 -77.8447 179° South 423 487 43,000  Level Jacksonville Center
Sun 02:24:30 PM 32.6228 -77.8342 176° South 423 487 43,000  Level Jacksonville Center
Sun 02:25:30 PM 32.5039 -77.8358 181° South 423 487 43,000  Level Jacksonville Center
Sun 02:26:30 PM 32.3844 -77.8228 175° South 423 487 43,000  Level Jacksonville Center
Sun 02:28:30 PM 32.1464 -77.8189 179° South 423 487 43,000  Level Jacksonville Center
Sun 02:29:30 PM 32.0272 -77.8156 179° South 428 493 43,000  Level Jacksonville Center
Sun 02:30:30 PM 31.9078 -77.8025 175° South 428 493 43,000  Level Jacksonville Center
Sun 02:31:30 PM 31.7906 -77.7969 178° South 428 493 43,000  Level Jacksonville Center
Sun 02:32:30 PM 31.6714 -77.7936 179° South 428 493 43,000  Level Jacksonville Center
Sun 02:33:30 PM 31.5503 -77.7931 180° South 437 503 43,000  Level Jacksonville Center
Sun 02:34:30 PM 31.4294 -77.7922 180° South 436 502 43,000  Level Jacksonville Center
Sun 02:35:30 PM 31.3081 -77.7892 179° South 437 503 43,000  Level Jacksonville Center
Sun 02:36:30 PM 31.1911 -77.7833 178° South 437 503 43,000  Level Jacksonville Center
Sun 02:37:30 PM 31.0697 -77.7778 178° South 438 504 43,000  Level Jacksonville Center
Sun 02:38:30 PM 30.9483 -77.7675 176° South 446 513 43,000  Level Jacksonville Center
Sun 02:39:30 PM 30.8292 -77.7619 178° South 437 503 43,000  Level Jacksonville Center
Sun 02:40:30 PM 30.7078 -77.7564 178° South 437 503 43,000  Level Jacksonville Center
Sun 02:41:30 PM 30.5864 -77.7508 178° South 454 522 43,000  Level Jacksonville Center
Sun 02:43:41 PM 30.3214 -77.7472 179° South 433 498 43,000  Level Miami Center
Sun 02:44:41 PM 30.2025 -77.7464 180° South 428 493 43,000  Level Miami Center
Sun 02:45:41 PM 30.0839 -77.7431 179° South 434 499 43,000  Level Miami Center
Sun 02:46:41 PM 29.9628 -77.7347 177° South 440 506 43,000  Level Miami Center
Sun 02:47:41 PM 29.8400 -77.7289 178° South 440 506 43,000  Level Miami Center
Sun 02:48:41 PM 29.7147 -77.7183 176° South 447 514 43,000  Level Miami Center
Sun 02:49:41 PM 29.5958 -77.7153 179° South 454 522 43,000  Level Miami Center
Sun 02:50:41 PM 29.4708 -77.7069 177° South 452 520 43,000  Level Miami Center
Sun 02:51:41 PM 29.3500 -77.7014 178° South 446 513 43,000  Level Miami Center
Sun 02:52:41 PM 29.2269 -77.6956 178° South 441 507 43,000  Level Miami Center
Sun 02:53:41 PM 29.0997 -77.6853 176° South 446 513 43,000  Level Miami Center
Sun 02:54:41 PM 28.9786 -77.6794 178° South 441 507 43,000  Level Miami Center
Sun 02:55:41 PM 28.8556 -77.6739 178° South 441 507 43,000  Level Miami Center
Sun 02:56:41 PM 28.7283 -77.6658 177° South 446 513 43,000  Level Miami Center
Sun 02:57:41 PM 28.6114 -77.6603 178° South 435 501 43,000  Level Miami Center
Sun 02:58:41 PM 28.4842 -77.6547 178° South 440 506 43,000  Level Miami Center
Sun 02:59:41 PM 28.3589 -77.6492 178° South 440 506 43,000  Level Miami Center
Sun 03:00:41 PM 28.2336 -77.6411 177° South 445 512 43,000  Level Miami Center
Sun 03:01:41 PM 28.1064 -77.6331 177° South 450 518 43,000  Level Miami Center
Sun 03:02:41 PM 27.9853 -77.6253 177° South 450 518 43,000  Level Miami Center
Sun 03:03:41 PM 27.8603 -77.5939 167° South 450 518 43,000  Level Miami Center
Sun 03:04:41 PM 27.7394 -77.5414 159° South 463 533 43,000  Level Miami Center
Sun 03:05:41 PM 27.6100 -77.5008 164° South 468 539 43,000  Level Miami Center
Sun 03:06:41 PM 27.4975 -77.4417 155° Southeast 485 558 43,000  Level Miami Center
Sun 03:07:41 PM 27.3725 -77.3897 160° South 485 558 43,000  Level Miami Center
Sun 03:08:41 PM 27.2494 -77.3422 161° South 480 552 43,000  Level Miami Center
Sun 03:09:41 PM 27.1264 -77.2906 160° South 462 532 43,000  Level Miami Center
Sun 03:10:41 PM 27.0031 -77.2386 159° South 469 540 43,000  Level Miami Center
Sun 03:11:41 PM 26.8800 -77.1942 162° South 469 540 43,000 -650 Level Miami Center
Sun 03:12:41 PM 26.7569 -77.1425 159° South 469 540 41,700 -1,350 Descending Miami Center
Sun 03:13:41 PM 26.6336 -77.0842 157° South 457 526 40,300 -1,350 Descending Miami Center
Sun 03:14:41 PM 26.5147 -77.0492 165° South 457 526 39,000 -1,250 Descending Miami Center
Sun 03:15:41 PM 26.3936 -76.9933 158° South 457 526 37,800 -1,300 Descending Miami Center
Sun 03:16:41 PM 26.2744 -76.9467 161° South 464 534 36,400 -1,350 Descending Miami Center
Sun 03:17:41 PM 26.1428 -76.8933 160° South 464 534 35,100 -1,200 Descending Miami Center
Sun 03:18:41 PM 26.0194 -76.8447 160° South 464 534 34,000 -1,100 Descending Miami Center
Sun 03:19:41 PM 25.8983 -76.7964 160° South 464 534 32,900 -1,100 Descending Miami Center
Sun 03:20:41 PM 25.7792 -76.7481 160° South 464 534 31,800 -1,100 Descending Miami Center
Sun 03:21:41 PM 25.6539 -76.6972 160° South 469 540 30,700 -1,100 Descending Miami Center
Sun 03:22:41 PM 25.5325 -76.6514 161° South 469 540 29,600 -1,100 Descending Miami Center
Sun 03:23:41 PM 25.4111 -76.6011 159° South 469 540 28,500 -1,100 Descending Miami Center
Sun 03:24:41 PM 25.2878 -76.5531 161° South 469 540 27,400 -1,150 Descending Miami Center
Sun 03:25:41 PM 25.1750 -76.5075 160° South 453 521 26,200 -1,150 Descending Miami Center
Sun 03:26:41 PM 25.0597 -76.4642 161° South 441 507 25,100 -600 Descending Miami Center
Sun 03:27:41 PM 24.9469 -76.4186 160° South 441 507 25,000 -50 Descending Miami Center
Sun 03:28:41 PM 24.8317 -76.3733 160° South 436 502 25,000 -200 Level Miami Center
Sun 03:29:41 PM 24.7186 -76.3281 160° South 441 507 24,600 -1,350 Descending Miami Center
Sun 03:30:41 PM 24.6058 -76.2828 160° South 441 507 22,300 -2,350 Descending Miami Center
Sun 03:31:41 PM 24.4969 -76.2422 161° South 431 496 19,900 -2,350 Descending Miami Center
Sun 03:32:41 PM 24.3922 -76.1994 160° South 414 476 17,600 -2,200 Descending Miami Center
Sun 03:33:41 PM 24.2897 -76.1611 161° South 398 458 15,500 -2,100 Descending Miami Center
Sun 03:34:41 PM 24.1933 -76.1253 161° South 387 445 13,400 -2,050 Descending Miami Center
Sun 03:35:41 PM 24.1033 -76.0894 160° South 364 419 11,400 -1,700 Descending Miami Center
Sun 03:36:41 PM 24.0236 -76.0581 160° South 331 381 10,000 -1,450 Descending Miami Center
Sun 03:37:41 PM 23.9503 -76.0311 161° South 302 348 8,500 -1,450 Descending Miami Center
Sun 03:38:41 PM 23.8792 -76.0044 161° South 276 318 7,100 -750 Descending Miami Center
Sun 03:39:41 PM 23.8267 -75.9844 161° South 255 293 7,000  Descending Miami Center
Sun 03:40:41 PM 23.7744 -75.9619 158° South 220 253 7,100  Climbing Miami Center
Sun 03:41:41 PM 23.7200 -75.9397 160° South 212 244 7,000 -50 Descending Miami Center
Sun 03:42:41 PM 23.6633 -75.9197 162° South 212 244 7,000 -950 Level Miami Center
Sun 03:43:41 PM 23.6069 -75.8975 160° South 206 237 5,100 -1,900 Descending Miami Center
Sun 03:45:00 PM 23.5626 -75.8780 160° South  Level Estimated
Sun 03:52:00 PM 23.5626 -75.8780 160° South  Level Estimated
Sun 03:53:00 PM 23.5626 -75.8780 160° South  Level Estimated
Sun 03:54:00 PM 23.5626 -75.8780 160° South  Level Estimated
Sun 03:55:00 PM 23.5626 -75.8780 160° South  Level Estimated
Sun 03:56:00 PM 23.5626 -75.8780 160° South  Level Estimated
Sun 03:57:00 PM 23.5626 -75.8780 160° South  Level Estimated
Sun 03:58:00 PM 23.5626 -75.8780 160° South  Level Estimated

Login

Don't have an account? Register now (free) for customized features, flight alerts, and more!